This is the latest recevied weather packets stored in our database for station/object YO6SAY-10. If no packets are shown the sender has not sent any weather packets the latest 10 day(s).
| Time | Temp. | Humidity | Pressure | Rain* | Wind** | Luminosity | Snow |
|---|---|---|---|---|---|---|---|
| 1777922166 | 15.56° C | 49% | 949.1 hPa | - | - | - | - |
| 1777918566 | 15.56° C | 47% | 948.8 hPa | - | - | - | - |
| 1777917666 | 16.11° C | 47% | 948.7 hPa | - | - | - | - |
| 1777912265 | 22.22° C | 42% | 948.1 hPa | - | - | - | - |
| 1777900560 | 27.78° C | 34% | 948.8 hPa | - | - | - | - |
| 1777897859 | 23.33° C | 38% | 949.2 hPa | - | - | - | - |
| 1777896959 | 22.78° C | 39% | 949.6 hPa | - | - | - | - |
| 1777896059 | 22.78° C | 39% | 949.6 hPa | - | - | - | - |
| 1777895159 | 26.11° C | 36% | 949.7 hPa | - | - | - | - |
| 1777894259 | 23.33° C | 39% | 949.9 hPa | - | - | - | - |
| 1777893358 | 17.78° C | 43% | 950 hPa | - | - | - | - |
| 1777892458 | 16.11° C | 44% | 950.1 hPa | - | - | - | - |
| 1777891558 | 15.56° C | 43% | 950.2 hPa | - | - | - | - |
| 1777890658 | 15.56° C | 44% | 950.4 hPa | - | - | - | - |
| 1777889757 | 15.56° C | 44% | 950.4 hPa | - | - | - | - |
| 1777888857 | 15° C | 44% | 950.7 hPa | - | - | - | - |
| 1777887957 | 15° C | 44% | 950.8 hPa | - | - | - | - |
| 1777887057 | 15° C | 44% | 950.9 hPa | - | - | - | - |
| 1777886157 | 14.44° C | 44% | 950.9 hPa | - | - | - | - |
| 1777885257 | 14.44° C | 44% | 950.9 hPa | - | - | - | - |
| 1777884356 | 13.89° C | 45% | 951 hPa | - | - | - | - |
| 1777883456 | 13.89° C | 45% | 950.9 hPa | - | - | - | - |
| 1777882556 | 13.89° C | 47% | 951.1 hPa | - | - | - | - |
| 1777881656 | 13.89° C | 48% | 951 hPa | - | - | - | - |
| 1777880756 | 14.44° C | 50% | 951.1 hPa | - | - | - | - |
* Rain since midnight (hover to see other rain measurements)
** Current wind speed in m/s (hover to see current wind gust speed)